マニラ/ニノイ・アキノ の空港の天気 - METARとTAF

ニノイ・アキノ国際空港 ( RPLL / MNL ) - フィリピン マニラ
飛行場実況気象(Metar)
観測時間10/20 02:00 PHT (10/19 18:00 UTC)
風向・風速北東 1m/s
視程10km以上
天気現象
少しの雲 雲底高度 700m
気温27℃
湿度94%
気圧1013hPa
METARRPLL 191800Z 05002KT 9999 FEW023 27/26 Q1013 NOSIG RMK A2991
過去の天気等 Google飛行場航空写真 Wunderground天気予報

過去48時間のMETAR

飛行場予報(TAF)
発表時間: 10/20 01:00 PHT (10/19 17:00 UTC)
予報対象時間: 20日2時 PHT ~ 21日8時 PHT
風向・風速東南東 3m/s
視程10km以上
少しの雲 雲底高度 760m
全天の4割程度の雲 雲底高度 9140m
20日2時 PHT ~ 20日8時 PHT に一時的に
風向・風速東北東 3m/s
少しの積乱雲 雲底高度 670m
少しの雲 雲底高度 700m
全天の4割程度の雲 雲底高度 3050m
20日8時 PHT ~ 20日14時 PHT に一時的に
風向・風速南東 4m/s
少しの雲 雲底高度 700m
全天の4割程度の雲 雲底高度 3050m
TAF RPLL 191700Z 1918/2024 11006KT 9999 FEW025 SCT300 TX33/2006Z TN25/1921Z
TEMPO 1918/1924 07005KT FEW022CB FEW023 SCT100
TEMPO 2000/2006 14008KT FEW023 SCT100